Time;durP1;ratioP1;P1;durP2;ratioP2;P2;SDS_P1;SDS_P2;PMS_P1;PMS_P2;Temp;Humidity;BMP_temperature;BMP_pressure;BME280_temperature;BME280_humidity;BME280_pressure;Samples;Min_cycle;Max_cycle;Signal;HPM_P1;HPM_P2
2023/05/06 00:01:51;;;;;;;116.00;109.25;;;11.50;99.90;;;;;;5079847;28;20407;-68
2023/05/06 00:04:16;;;;;;;109.78;103.05;;;11.50;99.90;;;;;;5086312;28;20042;-68
2023/05/06 00:06:42;;;;;;;99.03;93.13;;;11.50;99.90;;;;;;5087952;28;20074;-67
2023/05/06 00:09:09;;;;;;;84.50;78.30;;;11.40;99.90;;;;;;5087761;28;20036;-67
2023/05/06 00:11:34;;;;;;;81.93;75.43;;;11.40;99.90;;;;;;5064969;28;20095;-67
2023/05/06 00:14:00;;;;;;;72.90;65.03;;;11.30;99.90;;;;;;5086262;28;20446;-68
2023/05/06 00:16:25;;;;;;;102.45;57.05;;;11.20;99.90;;;;;;5075129;28;20051;-67
2023/05/06 00:18:51;;;;;;;64.55;54.35;;;11.10;99.90;;;;;;5080718;28;20599;-67
2023/05/06 00:21:16;;;;;;;168.20;52.60;;;11.00;99.90;;;;;;5069553;28;20511;-67
2023/05/06 00:23:42;;;;;;;197.95;52.42;;;10.90;99.90;;;;;;5072706;28;20028;-67
2023/05/06 00:26:08;;;;;;;218.20;51.03;;;10.80;99.90;;;;;;5081099;28;20442;-67
2023/05/06 00:28:34;;;;;;;222.55;51.95;;;10.70;99.90;;;;;;5076451;28;20052;-67
2023/05/06 00:31:00;;;;;;;236.98;62.38;;;10.70;99.90;;;;;;5084897;28;20058;-67
2023/05/06 00:33:26;;;;;;;302.83;66.85;;;10.60;99.90;;;;;;5079082;28;20115;-67
2023/05/06 00:35:51;;;;;;;128.57;81.90;;;10.60;99.90;;;;;;5072800;28;20055;-67
2023/05/06 00:38:18;;;;;;;110.47;103.57;;;10.50;99.90;;;;;;5086592;28;20097;-67
2023/05/06 00:40:44;;;;;;;129.55;122.40;;;10.50;99.90;;;;;;5085687;28;20582;-68
2023/05/06 00:43:10;;;;;;;157.93;149.32;;;10.50;99.90;;;;;;5063021;28;20075;-67
2023/05/06 00:45:36;;;;;;;176.60;167.48;;;10.60;99.90;;;;;;5081559;28;20044;-67
2023/05/06 00:48:03;;;;;;;193.05;181.95;;;10.60;99.90;;;;;;5073966;28;20039;-67
2023/05/06 00:50:31;;;;;;;187.15;177.18;;;10.70;99.90;;;;;;5084192;28;20040;-67
2023/05/06 00:52:58;;;;;;;195.30;184.90;;;10.80;99.90;;;;;;5078673;28;20055;-67
2023/05/06 00:55:24;;;;;;;199.77;185.70;;;10.80;99.90;;;;;;5079954;28;20052;-67
2023/05/06 00:57:51;;;;;;;196.88;183.95;;;10.90;99.90;;;;;;5086914;28;20047;-67
2023/05/06 01:00:19;;;;;;;191.00;179.18;;;10.90;99.90;;;;;;5085281;28;20050;-67
2023/05/06 01:02:48;;;;;;;200.20;188.35;;;11.00;99.90;;;;;;5081654;28;20067;-67
2023/05/06 01:05:19;;;;;;;199.15;188.55;;;11.00;99.90;;;;;;5084538;28;20395;-67
2023/05/06 01:08:13;;;;;;;189.20;178.70;;;11.10;99.90;;;;;;5082387;28;20052;-67
2023/05/06 01:10:59;;;;;;;178.10;168.07;;;11.10;99.90;;;;;;5078077;28;20052;-67
2023/05/06 01:13:46;;;;;;;176.75;167.38;;;11.00;99.90;;;;;;5083633;28;20392;-67
2023/05/06 01:16:15;;;;;;;180.75;166.80;;;11.00;99.90;;;;;;5084749;28;20048;-67
2023/05/06 01:18:42;;;;;;;163.70;154.07;;;11.00;99.90;;;;;;5075878;28;20114;-67
2023/05/06 01:21:09;;;;;;;144.68;136.15;;;11.00;99.90;;;;;;5083963;28;20110;-67
2023/05/06 01:23:51;;;;;;;142.70;135.70;;;11.00;99.90;;;;;;5077781;28;20094;-67
2023/05/06 01:26:16;;;;;;;131.38;124.28;;;11.00;99.90;;;;;;5074345;28;20135;-67
2023/05/06 01:28:42;;;;;;;141.23;132.73;;;11.00;99.90;;;;;;5082937;28;20193;-68
2023/05/06 01:31:11;;;;;;;140.68;132.10;;;11.00;99.90;;;;;;5078174;28;20042;-67
2023/05/06 01:33:58;;;;;;;153.07;144.52;;;11.00;99.90;;;;;;5088720;28;20124;-67
2023/05/06 01:36:30;;;;;;;152.95;143.77;;;11.10;99.90;;;;;;5088502;28;20449;-67
2023/05/06 01:38:59;;;;;;;162.43;152.90;;;11.10;99.90;;;;;;5096772;28;20066;-67
2023/05/06 01:41:26;;;;;;;147.65;138.55;;;11.10;99.90;;;;;;5097582;28;20035;-67
2023/05/06 01:43:53;;;;;;;150.15;140.40;;;11.10;99.90;;;;;;5097296;28;20043;-67
2023/05/06 01:46:21;;;;;;;144.82;134.70;;;11.00;99.90;;;;;;5089355;28;20047;-67
2023/05/06 01:48:52;;;;;;;115.22;107.60;;;11.00;99.90;;;;;;5062672;28;20035;-67
2023/05/06 01:51:19;;;;;;;119.97;111.93;;;10.90;99.90;;;;;;5091022;28;20072;-67
2023/05/06 01:53:44;;;;;;;92.38;85.75;;;10.90;99.90;;;;;;5081665;28;20398;-67
2023/05/06 01:56:10;;;;;;;89.63;83.47;;;10.90;99.90;;;;;;5085483;28;20043;-67
2023/05/06 01:58:36;;;;;;;91.63;85.43;;;10.80;99.90;;;;;;5077357;28;20105;-67
2023/05/06 02:01:01;;;;;;;167.15;70.78;;;10.80;99.90;;;;;;5068802;28;20055;-67
2023/05/06 02:03:27;;;;;;;296.63;66.53;;;10.70;99.90;;;;;;5081681;28;20043;-67
2023/05/06 02:05:52;;;;;;;121.78;63.17;;;10.70;99.90;;;;;;5099148;28;20047;-67
2023/05/06 02:08:18;;;;;;;184.93;61.80;;;10.60;99.90;;;;;;5074153;28;20579;-68
2023/05/06 02:10:44;;;;;;;173.40;74.32;;;10.60;99.90;;;;;;5081192;28;20120;-67
2023/05/06 02:13:10;;;;;;;111.60;102.78;;;10.60;99.90;;;;;;5073528;28;20023;-68
2023/05/06 02:15:36;;;;;;;210.32;115.55;;;10.60;99.90;;;;;;5068124;28;20031;-67
2023/05/06 02:18:01;;;;;;;124.03;115.30;;;10.60;99.90;;;;;;5071229;28;20039;-67
2023/05/06 02:20:27;;;;;;;136.68;128.85;;;10.70;99.90;;;;;;5085500;28;20088;-67
2023/05/06 02:22:52;;;;;;;157.90;148.98;;;10.70;99.90;;;;;;5063229;28;20039;-67
2023/05/06 02:25:18;;;;;;;159.05;149.02;;;10.70;99.90;;;;;;5081662;28;20116;-68
2023/05/06 02:27:44;;;;;;;158.57;149.02;;;10.70;99.90;;;;;;5096204;28;20491;-67
2023/05/06 02:30:10;;;;;;;147.23;138.63;;;10.80;99.90;;;;;;5076251;28;20040;-68
2023/05/06 02:32:36;;;;;;;135.88;127.60;;;10.70;99.90;;;;;;5087714;28;20079;-68
2023/05/06 02:35:02;;;;;;;133.98;126.00;;;10.70;99.90;;;;;;5086018;28;20086;-67
2023/05/06 02:37:27;;;;;;;124.65;116.88;;;10.70;99.90;;;;;;5073107;28;20046;-68
2023/05/06 02:39:53;;;;;;;121.65;113.25;;;10.70;99.90;;;;;;5083632;28;20054;-68
2023/05/06 02:42:20;;;;;;;126.75;118.15;;;10.70;99.90;;;;;;5085772;28;20039;-67
2023/05/06 02:44:45;;;;;;;130.55;120.68;;;10.70;99.90;;;;;;5090238;27;20043;-67
2023/05/06 02:47:11;;;;;;;116.40;107.75;;;10.70;99.90;;;;;;5076372;28;20043;-67
2023/05/06 02:49:37;;;;;;;127.75;115.47;;;10.70;99.90;;;;;;5103862;27;20043;-67
2023/05/06 02:52:02;;;;;;;126.72;117.13;;;10.70;99.90;;;;;;5092327;28;20044;-67
2023/05/06 02:54:28;;;;;;;140.10;129.63;;;10.60;99.90;;;;;;5091634;27;20050;-67
2023/05/06 02:56:54;;;;;;;134.73;126.55;;;10.60;99.90;;;;;;5077485;28;20051;-67
2023/05/06 02:59:19;;;;;;;119.45;111.03;;;10.60;99.90;;;;;;5083984;28;20052;-67
2023/05/06 03:01:45;;;;;;;130.27;122.55;;;10.50;99.90;;;;;;5071988;28;20052;-67
2023/05/06 03:04:11;;;;;;;149.45;136.45;;;10.60;99.90;;;;;;5086724;28;20066;-67
2023/05/06 03:06:36;;;;;;;136.23;124.15;;;10.50;99.90;;;;;;5070024;28;20039;-67
2023/05/06 03:09:03;;;;;;;113.03;104.50;;;10.50;99.90;;;;;;5088623;28;20043;-67
2023/05/06 03:11:30;;;;;;;117.00;108.68;;;10.50;99.90;;;;;;5081737;28;20108;-67
2023/05/06 03:13:56;;;;;;;106.57;99.40;;;10.40;99.90;;;;;;5091341;28;20047;-68
2023/05/06 03:16:22;;;;;;;109.75;101.78;;;10.30;99.90;;;;;;5078966;28;20043;-67
2023/05/06 03:18:48;;;;;;;114.85;106.38;;;10.30;99.90;;;;;;5090890;28;20055;-67
2023/05/06 03:21:13;;;;;;;167.90;102.68;;;10.30;99.90;;;;;;5103186;27;20050;-67
2023/05/06 03:23:39;;;;;;;136.50;127.43;;;10.20;99.90;;;;;;5090955;28;20122;-67
2023/05/06 03:26:04;;;;;;;348.10;107.85;;;10.10;99.90;;;;;;5090816;28;20060;-67
2023/05/06 03:28:30;;;;;;;110.50;102.68;;;10.10;99.90;;;;;;5091694;28;20506;-67
2023/05/06 03:30:56;;;;;;;207.15;92.53;;;10.00;99.90;;;;;;5082430;27;20040;-67
2023/05/06 03:33:21;;;;;;;290.48;90.68;;;9.90;99.90;;;;;;5092841;28;20042;-67
2023/05/06 03:35:47;;;;;;;365.80;93.18;;;9.90;99.90;;;;;;5089194;28;20039;-67
2023/05/06 03:38:12;;;;;;;257.20;99.80;;;9.90;99.90;;;;;;5064405;28;20075;-67
2023/05/06 03:40:38;;;;;;;388.02;99.07;;;9.80;99.90;;;;;;5089763;28;20566;-67
2023/05/06 03:43:04;;;;;;;305.33;80.25;;;9.80;99.90;;;;;;5088416;28;20147;-67
2023/05/06 03:45:29;;;;;;;120.07;70.25;;;9.70;99.90;;;;;;5100950;28;20053;-67
2023/05/06 03:47:55;;;;;;;121.30;58.08;;;9.60;99.90;;;;;;5071270;28;20552;-68
2023/05/06 03:50:21;;;;;;;240.30;64.32;;;9.50;99.90;;;;;;5083367;28;20495;-67
2023/05/06 03:52:46;;;;;;;190.65;56.80;;;9.50;99.90;;;;;;5095379;28;20051;-67
2023/05/06 03:55:12;;;;;;;217.30;56.55;;;9.40;99.90;;;;;;5060662;28;20062;-67
2023/05/06 03:57:38;;;;;;;300.40;60.25;;;9.30;99.90;;;;;;5080117;28;20031;-67
2023/05/06 04:00:05;;;;;;;274.98;60.97;;;9.30;99.90;;;;;;5098825;28;20044;-68
2023/05/06 04:02:31;;;;;;;239.93;63.55;;;9.20;99.90;;;;;;5090968;28;20094;-68
2023/05/06 04:04:57;;;;;;;157.07;69.20;;;9.20;99.90;;;;;;5078291;28;20140;-67
2023/05/06 04:07:23;;;;;;;161.13;65.85;;;9.20;99.90;;;;;;5108366;28;20507;-68
2023/05/06 04:09:48;;;;;;;92.78;65.70;;;9.20;99.90;;;;;;5089866;28;20043;-67
2023/05/06 04:12:14;;;;;;;106.05;66.80;;;9.20;99.90;;;;;;5090315;28;20550;-67
2023/05/06 04:14:40;;;;;;;120.78;68.97;;;9.20;99.90;;;;;;5087821;28;20048;-67
2023/05/06 04:17:06;;;;;;;70.38;63.28;;;9.20;99.90;;;;;;5079357;28;20046;-67
2023/05/06 04:19:32;;;;;;;71.88;63.15;;;9.30;99.90;;;;;;5089721;28;20043;-67
2023/05/06 04:21:58;;;;;;;96.50;62.50;;;9.20;99.90;;;;;;5084371;28;20707;-67
2023/05/06 04:24:23;;;;;;;75.03;61.55;;;9.20;99.90;;;;;;5081306;28;20166;-68
2023/05/06 04:26:49;;;;;;;87.60;78.18;;;9.30;99.90;;;;;;5097853;28;20766;-68
2023/05/06 04:29:14;;;;;;;105.85;80.60;;;9.30;99.90;;;;;;5081331;28;20070;-68
2023/05/06 04:31:40;;;;;;;91.03;82.68;;;9.40;99.90;;;;;;5084767;28;20032;-67
2023/05/06 04:34:06;;;;;;;106.55;99.13;;;9.40;99.90;;;;;;5083282;28;20039;-68
2023/05/06 04:36:32;;;;;;;127.82;119.70;;;9.50;99.90;;;;;;5090451;28;20040;-68
2023/05/06 04:38:58;;;;;;;145.52;137.05;;;9.50;99.90;;;;;;5105217;28;20510;-67
2023/05/06 04:41:24;;;;;;;146.32;137.98;;;9.60;99.90;;;;;;5089900;28;20545;-67
2023/05/06 04:43:50;;;;;;;157.05;147.27;;;9.70;99.90;;;;;;5089845;28;20122;-68
2023/05/06 04:46:16;;;;;;;167.98;158.05;;;9.80;99.90;;;;;;5070586;28;20119;-68
2023/05/06 04:48:41;;;;;;;179.13;168.52;;;9.90;99.90;;;;;;5090247;28;20051;-68
2023/05/06 04:51:08;;;;;;;178.63;168.18;;;10.00;99.90;;;;;;5108192;28;20032;-68
2023/05/06 04:53:33;;;;;;;183.73;172.93;;;10.10;99.90;;;;;;5085785;28;20082;-68
2023/05/06 04:55:59;;;;;;;181.27;170.30;;;10.20;99.90;;;;;;5085804;28;20478;-67
2023/05/06 04:58:25;;;;;;;184.43;172.73;;;10.30;99.90;;;;;;5084096;28;20502;-68
2023/05/06 05:00:50;;;;;;;177.25;167.30;;;10.40;99.90;;;;;;5089661;28;20044;-68
2023/05/06 05:03:16;;;;;;;182.68;171.00;;;10.50;99.90;;;;;;5074381;28;20043;-67
2023/05/06 05:05:41;;;;;;;180.32;169.77;;;10.60;99.90;;;;;;5070092;28;20498;-68
2023/05/06 05:08:08;;;;;;;177.45;167.18;;;10.70;99.90;;;;;;5071333;28;20050;-68
2023/05/06 05:10:34;;;;;;;176.50;166.68;;;10.90;99.90;;;;;;5082063;28;20040;-68
2023/05/06 05:13:00;;;;;;;172.68;162.38;;;10.90;99.90;;;;;;5084792;28;20101;-67
2023/05/06 05:15:25;;;;;;;176.18;165.18;;;11.00;99.90;;;;;;5090896;28;20039;-68
2023/05/06 05:17:51;;;;;;;177.48;166.95;;;11.10;99.90;;;;;;5089866;28;20201;-68
2023/05/06 05:20:17;;;;;;;177.02;166.63;;;11.20;99.90;;;;;;5073748;28;20039;-67
2023/05/06 05:22:43;;;;;;;156.07;146.35;;;11.20;99.90;;;;;;5083692;28;20491;-68
2023/05/06 05:25:08;;;;;;;148.18;139.50;;;11.30;99.90;;;;;;5060458;28;20127;-68
2023/05/06 05:27:35;;;;;;;118.38;110.60;;;11.20;99.90;;;;;;5081885;28;20136;-67
2023/05/06 05:30:01;;;;;;;95.07;88.05;;;11.30;99.90;;;;;;5084235;28;20040;-67
2023/05/06 05:32:26;;;;;;;102.53;95.32;;;11.30;99.90;;;;;;5067745;28;20501;-67
2023/05/06 05:34:52;;;;;;;100.43;92.57;;;11.30;99.90;;;;;;5085800;28;20098;-67
2023/05/06 05:37:17;;;;;;;98.30;91.40;;;11.30;99.90;;;;;;5069019;28;20504;-67
2023/05/06 05:39:43;;;;;;;108.45;100.10;;;11.40;99.90;;;;;;5082309;28;20067;-67
2023/05/06 05:42:09;;;;;;;95.57;88.30;;;11.40;99.90;;;;;;5079997;28;20044;-67
2023/05/06 05:44:34;;;;;;;95.32;87.57;;;11.40;99.90;;;;;;5082343;28;20452;-67
2023/05/06 05:47:01;;;;;;;101.00;92.15;;;11.40;99.90;;;;;;5064491;28;20044;-66
2023/05/06 05:49:28;;;;;;;93.13;85.18;;;11.40;99.90;;;;;;5090036;28;20064;-67
2023/05/06 05:51:54;;;;;;;90.55;83.53;;;11.40;99.90;;;;;;5088924;28;20048;-67
2023/05/06 05:54:19;;;;;;;97.35;89.00;;;11.30;99.90;;;;;;5084570;28;20509;-67
2023/05/06 05:56:45;;;;;;;104.93;96.72;;;11.30;99.90;;;;;;5063836;28;20055;-67
2023/05/06 05:59:11;;;;;;;126.72;116.95;;;11.30;99.90;;;;;;5075840;28;20035;-67
2023/05/06 06:01:36;;;;;;;126.90;118.35;;;11.30;99.90;;;;;;5076368;28;20040;-67
2023/05/06 06:04:02;;;;;;;168.27;156.73;;;11.30;99.90;;;;;;5051017;28;20515;-67
2023/05/06 06:06:27;;;;;;;155.30;145.55;;;11.30;99.90;;;;;;5080756;28;20040;-67
2023/05/06 06:08:53;;;;;;;161.40;151.18;;;11.40;99.90;;;;;;5066827;28;20059;-67
2023/05/06 06:11:19;;;;;;;167.73;157.50;;;11.40;99.90;;;;;;5076488;28;20044;-67
2023/05/06 06:13:44;;;;;;;178.30;166.95;;;11.40;99.90;;;;;;5079057;28;20372;-67
2023/05/06 06:16:10;;;;;;;201.20;187.32;;;11.40;99.90;;;;;;5090683;28;20055;-67
2023/05/06 06:18:36;;;;;;;197.15;185.70;;;11.40;99.90;;;;;;5086658;28;20052;-67
2023/05/06 06:21:01;;;;;;;193.57;182.35;;;11.50;99.90;;;;;;5089802;28;20442;-68
2023/05/06 06:23:27;;;;;;;188.63;176.02;;;11.50;99.90;;;;;;5068431;28;20044;-68
2023/05/06 06:25:52;;;;;;;194.70;182.40;;;11.50;99.90;;;;;;5089158;28;20109;-67
2023/05/06 06:28:18;;;;;;;189.48;177.90;;;11.50;99.90;;;;;;5087965;28;20654;-67
2023/05/06 06:30:44;;;;;;;189.07;176.90;;;11.60;99.90;;;;;;5079767;28;20047;-67
2023/05/06 06:33:10;;;;;;;185.35;173.15;;;11.60;99.90;;;;;;5073706;28;20111;-67
2023/05/06 06:35:35;;;;;;;198.93;185.30;;;11.60;99.90;;;;;;5094111;28;20087;-67
2023/05/06 06:38:01;;;;;;;202.35;188.73;;;11.70;99.90;;;;;;5084323;28;20074;-67
2023/05/06 06:40:27;;;;;;;191.50;179.48;;;11.70;99.90;;;;;;5081854;28;20646;-68
2023/05/06 06:42:53;;;;;;;130.73;122.07;;;11.80;99.90;;;;;;5070032;28;20119;-68
2023/05/06 06:45:19;;;;;;;137.48;128.70;;;11.80;99.90;;;;;;5081384;28;20047;-68
2023/05/06 06:47:45;;;;;;;181.45;169.48;;;11.80;99.90;;;;;;5084586;28;20085;-68
2023/05/06 06:50:10;;;;;;;191.68;176.45;;;11.90;99.90;;;;;;5087935;28;20031;-67
2023/05/06 06:52:36;;;;;;;193.25;180.68;;;12.00;99.90;;;;;;5068737;28;20032;-68
2023/05/06 06:55:02;;;;;;;171.40;159.20;;;12.10;99.90;;;;;;5088888;28;20039;-67
2023/05/06 06:57:28;;;;;;;162.30;149.38;;;12.20;99.90;;;;;;5087142;28;20073;-68
2023/05/06 06:59:54;;;;;;;152.75;142.07;;;12.30;99.90;;;;;;5086703;28;20040;-68
2023/05/06 07:02:20;;;;;;;177.80;166.52;;;12.40;99.90;;;;;;5077660;28;20059;-68
2023/05/06 07:04:46;;;;;;;158.82;149.18;;;12.40;99.90;;;;;;5084201;28;20491;-68
2023/05/06 07:07:11;;;;;;;138.38;129.88;;;12.50;99.90;;;;;;5086858;28;20055;-68
2023/05/06 07:09:38;;;;;;;146.45;136.98;;;12.50;99.90;;;;;;5084892;28;20055;-68
2023/05/06 07:12:05;;;;;;;160.48;150.60;;;12.50;99.90;;;;;;5088126;28;20040;-68
2023/05/06 07:14:31;;;;;;;130.52;121.88;;;12.60;99.90;;;;;;5085980;28;20492;-68
2023/05/06 07:16:57;;;;;;;201.38;188.73;;;12.70;99.90;;;;;;5087642;28;20036;-68
2023/05/06 07:19:22;;;;;;;168.07;157.93;;;12.70;99.90;;;;;;5089406;28;20039;-68
2023/05/06 07:21:48;;;;;;;131.38;122.03;;;12.80;99.90;;;;;;5082994;28;20036;-68
2023/05/06 07:24:13;;;;;;;150.13;140.40;;;12.90;99.90;;;;;;5081631;28;20085;-68
2023/05/06 07:26:39;;;;;;;137.90;129.50;;;13.00;99.90;;;;;;5060397;28;20083;-68
2023/05/06 07:29:05;;;;;;;154.85;145.27;;;13.10;99.90;;;;;;5086790;28;20558;-68
2023/05/06 07:31:32;;;;;;;150.45;141.10;;;13.30;99.90;;;;;;5081662;28;20131;-68
2023/05/06 07:33:58;;;;;;;92.13;85.75;;;13.40;99.90;;;;;;5081459;28;20035;-68
2023/05/06 07:36:24;;;;;;;99.93;92.85;;;13.50;99.90;;;;;;5063490;28;20352;-68
2023/05/06 07:38:49;;;;;;;81.65;76.15;;;13.60;99.90;;;;;;5067731;28;20041;-68
2023/05/06 07:41:15;;;;;;;102.82;96.30;;;13.80;99.90;;;;;;5077138;28;20089;-68
2023/05/06 07:43:41;;;;;;;61.83;56.55;;;13.90;99.90;;;;;;5072080;28;20135;-68
2023/05/06 07:46:07;;;;;;;69.63;64.85;;;14.10;99.90;;;;;;5070180;28;20046;-68
2023/05/06 07:48:32;;;;;;;85.18;79.60;;;14.20;99.90;;;;;;5076604;28;20554;-68
2023/05/06 07:50:58;;;;;;;102.82;96.28;;;14.40;99.90;;;;;;5072084;28;21164;-69
2023/05/06 07:53:24;;;;;;;84.60;79.20;;;14.70;99.90;;;;;;5069057;28;20305;-69
2023/05/06 07:55:51;;;;;;;122.60;115.32;;;15.00;99.90;;;;;;5069934;28;20057;-68
2023/05/06 07:58:20;;;;;;;115.18;108.80;;;15.20;99.90;;;;;;5080422;28;20442;-69
2023/05/06 08:00:45;;;;;;;56.55;52.47;;;15.50;99.90;;;;;;5073435;28;20590;-68
2023/05/06 08:03:11;;;;;;;58.70;54.80;;;15.60;99.90;;;;;;5079207;28;20044;-68
2023/05/06 08:05:37;;;;;;;57.90;54.03;;;15.80;99.90;;;;;;5081897;28;20044;-68
2023/05/06 08:08:02;;;;;;;49.10;45.70;;;15.90;99.90;;;;;;5087032;28;20046;-68
2023/05/06 08:10:28;;;;;;;44.80;41.90;;;15.90;99.90;;;;;;5082691;28;20057;-68
2023/05/06 08:12:53;;;;;;;41.03;38.20;;;16.00;99.90;;;;;;5083493;28;20556;-68
2023/05/06 08:15:19;;;;;;;42.70;39.42;;;16.10;99.90;;;;;;5089026;28;20097;-68
2023/05/06 08:17:45;;;;;;;42.45;39.60;;;15.90;99.90;;;;;;5089333;28;20475;-68
2023/05/06 08:20:12;;;;;;;41.28;38.33;;;15.80;99.90;;;;;;5071299;28;20512;-68
2023/05/06 08:22:38;;;;;;;43.92;40.88;;;15.80;99.90;;;;;;5077095;28;20040;-68
2023/05/06 08:25:04;;;;;;;43.47;40.28;;;15.90;99.90;;;;;;5078621;28;20055;-68
2023/05/06 08:27:29;;;;;;;52.13;48.90;;;16.00;99.90;;;;;;5082426;28;20047;-68
2023/05/06 08:29:56;;;;;;;55.17;51.63;;;16.10;99.90;;;;;;5072377;28;20036;-68
2023/05/06 08:32:21;;;;;;;55.90;52.13;;;16.30;99.90;;;;;;5082569;28;20498;-69
2023/05/06 08:34:47;;;;;;;59.40;55.83;;;16.40;99.90;;;;;;5083580;28;20097;-68
2023/05/06 08:37:12;;;;;;;64.60;60.83;;;16.50;99.90;;;;;;5086186;28;20046;-68
2023/05/06 08:39:38;;;;;;;88.07;83.32;;;16.60;99.90;;;;;;5088992;28;20485;-68
2023/05/06 08:42:04;;;;;;;82.50;78.05;;;17.00;99.90;;;;;;5086681;28;20134;-68
2023/05/06 08:44:32;;;;;;;109.03;103.55;;;17.70;99.90;;;;;;5086781;27;20043;-68
2023/05/06 08:46:58;;;;;;;123.38;117.45;;;18.40;99.90;;;;;;5085832;28;20560;-68
2023/05/06 08:49:24;;;;;;;158.02;150.85;;;18.90;99.90;;;;;;5079600;28;20067;-69
2023/05/06 08:51:53;;;;;;;162.38;154.95;;;19.50;99.90;;;;;;5071205;28;20037;-68
2023/05/06 08:54:22;;;;;;;158.38;151.25;;;19.80;99.90;;;;;;5084287;28;20031;-69
2023/05/06 08:56:52;;;;;;;148.90;142.18;;;20.20;99.90;;;;;;5083119;28;20268;-69
2023/05/06 08:59:22;;;;;;;174.63;166.82;;;20.30;99.90;;;;;;5083062;28;20043;-69
2023/05/06 09:01:48;;;;;;;155.20;148.20;;;20.40;99.90;;;;;;5080347;28;20047;-69
2023/05/06 09:04:15;;;;;;;152.80;146.02;;;20.70;99.90;;;;;;5072201;28;20081;-69
2023/05/06 09:06:41;;;;;;;171.55;163.90;;;20.90;99.90;;;;;;5059696;28;20035;-69
2023/05/06 09:09:06;;;;;;;222.63;212.75;;;20.80;99.90;;;;;;5072809;28;20501;-69
2023/05/06 09:11:32;;;;;;;256.60;245.13;;;21.00;99.90;;;;;;5084309;28;20036;-69
2023/05/06 09:14:10;;;;;;;322.80;308.00;;;21.00;99.90;;;;;;5087031;28;20058;-68
2023/05/06 09:16:37;;;;;;;220.55;210.85;;;21.10;99.90;;;;;;5078029;28;20068;-70
2023/05/06 09:19:04;;;;;;;204.18;195.07;;;21.30;99.90;;;;;;5087916;28;20050;-69
2023/05/06 09:21:35;;;;;;;124.63;119.00;;;21.20;99.90;;;;;;5073124;28;20404;-70
2023/05/06 09:24:02;;;;;;;161.60;154.32;;;21.00;99.90;;;;;;5084689;28;20435;-69
2023/05/06 09:26:29;;;;;;;124.32;118.75;;;20.90;99.90;;;;;;5087028;28;20453;-69
2023/05/06 09:28:56;;;;;;;256.20;244.88;;;21.00;99.90;;;;;;5087470;28;20048;-69
2023/05/06 09:31:24;;;;;;;208.65;198.98;;;21.00;99.90;;;;;;5084756;28;20133;-69
2023/05/06 09:33:50;;;;;;;61.05;57.92;;;21.10;99.90;;;;;;5087654;28;20422;-69
2023/05/06 09:36:16;;;;;;;199.90;190.82;;;21.00;99.90;;;;;;5081504;28;20088;-69
2023/05/06 09:38:41;;;;;;;320.17;305.27;;;20.70;99.90;;;;;;5086256;28;20040;-69
2023/05/06 09:41:08;;;;;;;223.13;213.02;;;20.40;99.90;;;;;;5072519;28;20515;-69
2023/05/06 09:43:36;;;;;;;167.52;160.18;;;20.30;99.90;;;;;;5060429;28;20580;-69
2023/05/06 09:46:04;;;;;;;295.20;281.42;;;20.40;99.90;;;;;;5090231;28;20039;-68
2023/05/06 09:48:30;;;;;;;50.78;48.20;;;20.60;99.90;;;;;;5093319;28;20054;-69
2023/05/06 09:50:57;;;;;;;52.40;49.63;;;20.90;99.90;;;;;;5075756;28;20047;-68
2023/05/06 09:53:24;;;;;;;120.45;115.07;;;21.20;99.90;;;;;;5061939;28;20050;-69
2023/05/06 09:55:50;;;;;;;142.70;136.40;;;21.30;99.90;;;;;;5076426;28;20043;-69
2023/05/06 09:58:16;;;;;;;70.40;67.05;;;21.30;99.90;;;;;;5096946;27;20050;-69
2023/05/06 10:00:43;;;;;;;208.30;198.93;;;21.50;99.90;;;;;;5082951;28;20070;-68
2023/05/06 10:03:10;;;;;;;79.07;75.43;;;21.60;99.90;;;;;;5090965;28;20122;-69
2023/05/06 10:05:36;;;;;;;19.58;18.17;;;21.70;99.90;;;;;;5081717;28;20177;-68
2023/05/06 10:08:06;;;;;;;80.65;76.72;;;21.50;99.90;;;;;;5083228;28;20469;-69
2023/05/06 10:10:33;;;;;;;283.90;270.83;;;21.40;99.90;;;;;;5093117;28;20043;-69
2023/05/06 10:13:02;;;;;;;115.22;110.10;;;21.50;99.90;;;;;;5084572;28;20082;-69
2023/05/06 10:15:29;;;;;;;197.15;188.27;;;21.70;99.90;;;;;;5086248;28;20059;-69
2023/05/06 10:17:55;;;;;;;103.40;98.72;;;21.70;99.90;;;;;;5069983;28;20117;-69
2023/05/06 10:20:22;;;;;;;37.10;34.85;;;21.70;99.90;;;;;;5092721;28;20055;-68
2023/05/06 10:22:58;;;;;;;161.80;154.55;;;21.80;99.90;;;;;;5092471;28;20047;-68
2023/05/06 10:25:38;;;;;;;135.25;128.88;;;21.70;99.90;;;;;;5067908;28;20496;-68
2023/05/06 10:28:06;;;;;;;172.57;164.18;;;21.70;99.90;;;;;;5083716;28;20055;-69
2023/05/06 10:30:36;;;;;;;169.68;161.80;;;21.70;99.90;;;;;;5085416;28;20044;-69
2023/05/06 10:33:12;;;;;;;50.72;47.47;;;21.60;99.90;;;;;;5085203;28;20381;-69
2023/05/06 10:35:41;;;;;;;170.80;162.93;;;21.70;99.90;;;;;;5079044;28;20051;-68
2023/05/06 10:38:13;;;;;;;27.88;26.00;;;21.90;99.90;;;;;;5083817;28;20043;-69
2023/05/06 10:40:39;;;;;;;105.55;100.47;;;22.00;99.90;;;;;;5068692;28;20451;-68
2023/05/06 10:43:24;;;;;;;53.90;50.88;;;21.80;99.90;;;;;;5087617;28;20051;-69
2023/05/06 10:46:05;;;;;;;42.00;39.38;;;21.90;99.90;;;;;;5078462;28;20055;-68
2023/05/06 10:48:31;;;;;;;23.13;21.33;;;21.70;99.90;;;;;;5088879;28;20052;-69
2023/05/06 10:51:15;;;;;;;143.15;136.40;;;21.40;99.90;;;;;;5080008;28;20057;-69
2023/05/06 10:54:10;;;;;;;18.73;17.17;;;20.90;99.90;;;;;;5083685;28;20403;-68
2023/05/06 10:57:01;;;;;;;185.73;177.05;;;20.70;99.90;;;;;;5063508;28;20289;-68
2023/05/06 10:59:30;;;;;;;307.70;293.27;;;20.50;99.90;;;;;;5085487;28;20396;-68
2023/05/06 11:02:08;;;;;;;295.30;281.33;;;20.40;99.90;;;;;;5076393;28;20047;-68
2023/05/06 11:04:34;;;;;;;206.57;196.80;;;20.30;99.90;;;;;;5088131;28;20048;-68
2023/05/06 11:07:13;;;;;;;193.60;184.80;;;20.20;99.90;;;;;;5070082;28;20078;-68
2023/05/06 11:10:06;;;;;;;293.95;280.35;;;20.10;99.90;;;;;;5088405;28;20028;-68
2023/05/06 11:12:50;;;;;;;273.85;261.48;;;19.90;99.90;;;;;;5075148;28;20510;-68
2023/05/06 11:15:38;;;;;;;177.63;169.45;;;19.80;99.90;;;;;;5076775;28;20094;-68
2023/05/06 11:18:26;;;;;;;288.98;275.65;;;19.60;99.90;;;;;;5074531;28;20040;-68
2023/05/06 11:21:01;;;;;;;286.35;272.92;;;19.50;99.90;;;;;;5079329;28;20139;-68
2023/05/06 11:23:45;;;;;;;275.17;262.50;;;19.30;99.90;;;;;;5068462;28;20047;-68
2023/05/06 11:26:12;;;;;;;169.50;161.73;;;19.10;99.90;;;;;;5084492;28;20056;-68
2023/05/06 11:28:41;;;;;;;264.48;252.15;;;18.90;99.90;;;;;;5065463;28;20051;-68
2023/05/06 11:31:08;;;;;;;182.88;174.38;;;18.80;99.90;;;;;;5087539;28;20044;-68
2023/05/06 11:33:35;;;;;;;134.38;128.10;;;18.60;99.90;;;;;;5082626;28;20129;-68
2023/05/06 11:36:03;;;;;;;65.95;62.42;;;18.60;99.90;;;;;;5083848;28;20040;-69
2023/05/06 11:38:48;;;;;;;52.67;49.78;;;18.50;99.90;;;;;;5078629;28;20482;-68
2023/05/06 11:41:15;;;;;;;162.40;154.77;;;18.20;99.90;;;;;;5088132;28;20044;-67
2023/05/06 11:43:51;;;;;;;44.53;41.58;;;18.10;99.90;;;;;;5069834;28;20036;-67
2023/05/06 11:46:18;;;;;;;84.97;80.75;;;18.00;99.90;;;;;;5074573;28;20098;-68
2023/05/06 11:48:43;;;;;;;152.73;145.48;;;17.80;99.90;;;;;;5067126;28;20067;-68
2023/05/06 11:51:09;;;;;;;127.20;121.07;;;17.70;99.90;;;;;;5078013;28;20083;-68
2023/05/06 11:53:36;;;;;;;151.65;144.30;;;17.50;99.90;;;;;;5083514;28;20049;-67
2023/05/06 11:56:04;;;;;;;177.18;168.80;;;17.30;99.90;;;;;;5066639;28;20135;-68
2023/05/06 11:58:29;;;;;;;189.10;180.50;;;17.20;99.90;;;;;;5082163;28;20416;-68
2023/05/06 12:00:57;;;;;;;83.22;79.22;;;17.10;99.90;;;;;;5085225;28;20058;-68
2023/05/06 12:03:24;;;;;;;151.18;144.63;;;16.90;99.90;;;;;;5063640;28;20511;-68
2023/05/06 12:05:50;;;;;;;166.00;158.85;;;16.60;99.90;;;;;;5088138;28;20036;-68
2023/05/06 12:08:22;;;;;;;131.40;125.85;;;16.40;99.90;;;;;;5077311;28;20032;-68
2023/05/06 12:10:49;;;;;;;122.05;116.55;;;16.10;99.90;;;;;;5078796;28;20514;-68
2023/05/06 12:13:15;;;;;;;136.23;130.50;;;15.80;99.90;;;;;;5083015;28;20051;-68
2023/05/06 12:15:42;;;;;;;124.28;119.00;;;15.70;99.90;;;;;;5086777;28;20051;-68